Les résultats vous sont offerts par

Télécharger en pdf

Trail de la Côte Châtillonnaise - Barbe bleue 8 km

31/03/2019 - Massingy

124 classés sur 128 inscrits

Catégorie Ordre Scratch Dossard Nom Prénom Sexe Temps
CA - M 1 1 422  RAILLARD  TANGUY M 00:36:58
2 3 411  OLLIN  JOSHUA M 00:42:20
3 4 394  LOUIS TISSERAND  THOMAS M 00:43:35
4 10 435  VIARD  BAPTISTE M 00:45:51
5 15 389  JANET  THOMAS M 00:48:40
6 27 365  BUNEL  THEO M 00:51:54
7 29 473  LECHENAULT  FLORIS M 00:52:29
8 62 420  PREVOT  DYLAN M 01:01:54
JU - F 1 53 417  PHILIPS  CAMILLE F 01:00:29
2 97 407  MOINE  MANON F 01:12:53
JU - M 1 2 371  DELLEMBURGER  DANIEL M 00:39:23
2 8 412  OLLIN  NATHAN M 00:44:49
3 38 456  MATEU  LOIC M 00:55:15
4 39 462  RAILLARD  AXEL M 00:55:17
5 46 385  GENTY  MAXIME M 00:58:26
6 63 449  LETOT  PIERRE M 01:02:06
7 65 395  COZ  PAUL M 01:02:35
ES - F 1 36 372  DEMASSEY  JULIE F 00:54:34
ES - M 1 24 410  OLLIN  ALEXANDRE M 00:51:39
2 28 390  KLINGER  LOUIS M 00:52:26
3 43 450  DOSSO  VALENTIN M 00:56:53
4 57 458  MATEU  PIERRE M 01:01:27
SE - F 1 22 386  GIBIER  VIRGINIE F 00:50:41
2 33 418  PLOFFOIN  LUCRECE F 00:54:05
3 40 453  COMPAROT  CHARLINE F 00:55:18
4 47 380  FOURNET  ANNE F 00:58:53
5 64 434  VERSTRAETE  AURORE F 01:02:32
6 67 419  POINSOT  EMILIE F 01:02:42
7 69 393  LOPEZ  MELINDA F 01:03:12
8 73 465  ROUGET  AURELIE F 01:05:28
9 78 370  DAUTEL  MARIE F 01:07:49
10 83 424  REMY  AXELLE F 01:08:10
11 84 475  BOURRICARD  PAULINE F 01:08:14
12 85 463  HUGEROT  AMANDINE F 01:08:38
13 87 477  CUENOT  LAURA F 01:09:30
14 92 431  VAN DEN BROECKE  ORIANE F 01:11:13
15 93 476  CHANET  ELODIE F 01:11:15
16 98 460  SAINT ETIENNE  ELODIE F 01:13:15
17 99 384  GENTY  JUSTINE F 01:13:16
18 100 433  VERSLYPE  DELPHINE F 01:13:19
19 101 378  FAUCHEREAU  ANNABELLE F 01:15:40
20 102 427  RONDEAU  CELINE F 01:16:00
21 103 469  PASTORET  ISALINE F 01:16:30
22 105 352  ADAM  ORLANE F 01:16:46
23 109 353  ALBERT  AMANDINE F 01:18:36
24 110 454  ADELINE  JULIE F 01:18:59
25 111 440  THIERRY  CAMILLE F 01:21:10
26 112 445  LE METAYER  EMILIE F 01:21:35
27 113 381  FOURNIER  AURELIE F 01:21:57
28 114 363  BUFFET  NATHALIE F 01:22:37
29 117 401  MARIN  LOUISE F 01:23:51
30 118 392  LO  SYLVIE F 01:24:17
SE - M 1 6 457  BONNARD  GEOFFREY M 00:44:22
2 7 442  MOYOT  FLORENT M 00:44:33
3 11 474  MOROT  NICOLAS M 00:46:29
4 12 472  TRIADOU  LUDOVIC M 00:47:03
5 14 416  PERNIN  THOMAS M 00:48:13
6 16 360  BONNARD  MATHIEU M 00:48:46
7 17 368  CHEVEAU  BENJAMIN M 00:48:55
8 18 366  CALVO  ANTHONY M 00:49:00
9 34 455  MARECHAL  PIERRE M 00:54:08
10 35 444  THOUVENOT  MATHIEU M 00:54:18
11 42 441  BOUTIN  EMMANUEL M 00:56:53
12 50 464  SZAWROWSKI  ANTOINE M 00:59:37
13 52 397  MAHMOUDI  MUSTAPHA M 01:00:08
14 56 439  THEVENIN  NICOLAS M 01:01:05
15 58 362  BRIGAND  JEREMIE M 01:01:43
16 59 409  NESME  KEVIN M 01:01:44
17 60 402  MARKUS  LIONEL M 01:01:48
18 86 396  LUCAS  FRANCOIS M 01:09:30
19 90 470  BEAUDIER  CHRISTOPHE M 01:10:46
20 94 400  MANCINI  NICOLAS M 01:12:20
21 96 451  CHARTON  VICTOR M 01:12:53
22 104 468  BONGARD  BAPTISTE M 01:16:32
M1 - F 1 32 452  OLLIVIER  SANDRA F 00:53:43
2 44 405  MAZUREK  CHRISTELLE F 00:57:39
3 51 423  RATTON  CATHERINE F 01:00:06
4 70 413  OLLIN  STEPHANIE F 01:03:25
5 77 432  VARIOT  ISABELLE F 01:06:50
6 79 467  DESTIPS  ANNE MARIE F 01:07:54
7 80 404  MAURY  VALERIE F 01:07:59
8 82 399  MALGRAS  NADEGE F 01:08:03
9 89 358  BIERNE  VERONIQUE F 01:09:38
10 91 448  PONCET  LUCRECE F 01:10:51
11 106 436  VIARD  SARAH F 01:17:22
12 108 406  MOINE  FLORENCE F 01:17:59
13 116 388  GUEUGNON  VIRGINIE F 01:23:51
14 119 426  ROMANO  KARINE F 01:24:20
15 120 376  DO CAMPO  ELISABETE F 01:24:38
16 122 428  SANTILLY  MAGALI F 01:31:49
17 123 355  ANTIL  KARINE F 01:31:50
M1 - M 1 5 461  BARRAUT  RUDY M 00:44:04
2 9 471  MANGIN  CHRISTIAN M 00:45:15
3 13 408  NAUDINOT  LOIC M 00:48:02
4 19 377  DOSSO  LUDOVIC M 00:49:13
5 21 437  PONCET  ARNAUD M 00:49:41
6 25 459  VIEL  FLORENT M 00:51:45
7 31 356  BECARD  JACQUES M 00:53:23
8 37 354  ANDREE  FREDERIQUE M 00:55:06
9 41 359  BILLOTTE  STEPHANE M 00:56:51
10 49 387  GOUIFFES  PHILIPPE M 00:59:21
11 54 429  TUPIN  LAURENT M 01:00:43
12 55 367  CHEVALLIER  FREDDY M 01:00:44
13 71 383  GARIMA  LUC M 01:04:19
14 72 232  RACHEDI  HALIM M 01:04:56
15 76 438  JEANNEY  JEROME M 01:06:32
M2 - F 1 61 403  MATAGNE  VERONIQUE F 01:01:51
2 81 415  PERCEBOIS  MARIE CHRISTINE F 01:08:00
3 107 443  DESHOUWES  SYLVIE F 01:17:24
4 121 447  DE ALMEIDA  ISABEL F 01:27:00
5 124 425  RICHARD GRAS  FABIENNE F 01:35:22
M2 - M 1 20 369  CHOPARD  OLIVIER M 00:49:20
2 23 373  DEMASSEY  LIONEL M 00:51:00
3 26 466  DESFOSSE  THIERRY M 00:51:48
4 30 379  FLEURY  DOMINIQUE M 00:52:44
5 45 364  BUIRETTE  FABRICE M 00:57:40
6 48 391  LAZZARONI  JEAN CHRISTOPHE M 00:59:09
7 66 374  DESCOMBES  FABRICE M 01:02:40
8 68 361  BOURGEOIS  FRANCK M 01:03:11
M3 - F 1 74 398  MAIRE  MICHELE F 01:06:10
2 95 446  LEDOUX  GABRIELLE F 01:12:47
M3 - M 1 75 357  BERTHENET  JEAN MARIE M 01:06:19
2 88 430  VALLAZ  YVES M 01:09:32
3 115 421  PROU  JEAN YVES M 01:22:59

 

 

Les résultats vous sont offerts par

Télécharger en pdf

 

 

 

 

 

 

 

 

 

 

 

 

 

 

 

 

 

 

 

 

 

 

 

chronometrage,chronométrage, sportif, chrono, course, course à pied, trail, trails, couse nature, puce